createdAt,value
2022-10-04T00:01:58.584Z,98504.81
2022-10-04T00:04:47.525Z,98506.69
2022-10-04T00:07:14.323Z,98509.94
2022-10-04T00:09:43.769Z,98512.16
2022-10-04T00:12:22.642Z,98509.88
2022-10-04T00:15:00.635Z,98505.88
2022-10-04T00:17:31.752Z,98519.50
2022-10-04T00:19:59.029Z,98519.62
2022-10-04T00:22:30.398Z,98521.19
2022-10-04T00:25:07.487Z,98522.00
2022-10-04T00:27:38.425Z,98517.50
2022-10-04T00:30:05.218Z,98510.62
2022-10-04T00:32:32.334Z,98509.53
2022-10-04T00:35:00.282Z,98506.53
2022-10-04T00:37:28.155Z,98513.09
2022-10-04T00:40:17.073Z,98514.63
2022-10-04T00:42:43.882Z,98514.09
2022-10-04T00:45:37.466Z,98513.53
2022-10-04T00:48:31.416Z,98523.47
2022-10-04T00:51:19.657Z,98520.78
2022-10-04T00:53:49.380Z,98524.63
2022-10-04T00:56:23.311Z,98518.59
2022-10-04T00:58:57.580Z,98518.66
2022-10-04T01:01:26.937Z,98512.38
2022-10-04T01:03:54.699Z,98510.19
2022-10-04T01:06:22.168Z,98510.25
2022-10-04T01:08:52.234Z,98521.19
2022-10-04T01:11:22.337Z,98515.50
2022-10-04T01:14:00.944Z,98515.44
2022-10-04T01:16:29.547Z,98516.06
2022-10-04T01:18:56.484Z,98517.28
2022-10-04T01:21:29.765Z,98519.88
2022-10-04T01:23:57.420Z,98518.16
2022-10-04T01:26:30.398Z,98516.66
2022-10-04T01:29:02.620Z,98513.75
2022-10-04T01:31:30.852Z,98520.72
2022-10-04T01:33:58.379Z,98517.84
2022-10-04T01:36:25.622Z,98510.31
2022-10-04T01:38:52.493Z,98512.75
2022-10-04T01:41:22.465Z,98511.44
2022-10-04T01:43:53.832Z,98509.69
2022-10-04T01:46:27.378Z,98505.47
2022-10-04T01:48:55.576Z,98503.91
2022-10-04T01:51:27.115Z,98506.87
2022-10-04T01:54:00.941Z,98503.06
2022-10-04T01:56:31.959Z,98502.56
2022-10-04T01:59:02.783Z,98505.69
2022-10-04T02:01:38.540Z,98507.28
2022-10-04T02:04:22.426Z,98503.56
2022-10-04T02:06:54.331Z,98503.78
2022-10-04T02:09:34.106Z,98500.44
2022-10-04T02:12:01.620Z,98497.59
2022-10-04T02:14:33.320Z,98502.25
2022-10-04T02:17:02.311Z,98493.94
2022-10-04T02:19:35.448Z,98489.19
2022-10-04T02:22:04.398Z,98496.38
2022-10-04T02:24:37.882Z,98502.16
2022-10-04T02:27:05.973Z,98493.91
2022-10-04T02:29:33.111Z,98490.50
2022-10-04T02:32:19.137Z,98490.75
2022-10-04T02:34:47.936Z,98493.34
2022-10-04T02:37:15.482Z,98495.44
2022-10-04T02:39:54.049Z,98494.50
2022-10-04T02:42:48.038Z,98490.38
2022-10-04T02:45:38.143Z,98501.06
2022-10-04T02:48:13.825Z,98495.25
2022-10-04T02:50:46.282Z,98502.47
2022-10-04T02:53:19.705Z,98499.78
2022-10-04T02:55:47.791Z,98490.53
2022-10-04T02:58:18.524Z,98500.97
2022-10-04T03:00:51.357Z,98493.25
2022-10-04T03:03:32.210Z,98502.31
2022-10-04T03:06:11.513Z,98497.94
2022-10-04T03:08:58.222Z,98498.59
2022-10-04T03:11:28.218Z,98493.91
2022-10-04T03:13:57.439Z,98482.00
2022-10-04T03:16:26.440Z,98483.34
2022-10-04T03:18:57.228Z,98482.50
2022-10-04T03:21:25.114Z,98477.53
2022-10-04T03:23:52.936Z,98482.75
2022-10-04T03:26:39.319Z,98494.75
2022-10-04T03:29:10.423Z,98484.69
2022-10-04T03:31:43.509Z,98486.53
2022-10-04T03:34:15.105Z,98489.03
2022-10-04T03:36:42.142Z,98486.94
2022-10-04T03:39:11.577Z,98492.31
2022-10-04T03:41:40.425Z,98484.34
2022-10-04T03:44:13.544Z,98493.31
2022-10-04T03:46:40.681Z,98493.59
2022-10-04T03:49:08.428Z,98495.66
2022-10-04T03:51:35.382Z,98498.63
2022-10-04T03:54:07.146Z,98499.94
2022-10-04T03:56:36.024Z,98496.12
2022-10-04T03:59:04.977Z,98495.31
2022-10-04T04:01:40.978Z,98499.09
2022-10-04T04:04:22.284Z,98491.25
2022-10-04T04:07:02.176Z,98496.78
2022-10-04T04:09:43.408Z,98492.31
2022-10-04T04:12:37.036Z,98491.19
2022-10-04T04:15:07.372Z,98499.53
2022-10-04T04:17:37.708Z,98483.09
2022-10-04T04:20:08.410Z,98487.38
2022-10-04T04:22:36.532Z,98479.56
2022-10-04T04:25:06.325Z,98490.88
2022-10-04T04:27:35.171Z,98493.09
2022-10-04T04:30:04.240Z,98492.84
2022-10-04T04:32:35.721Z,98484.59
2022-10-04T04:35:09.029Z,98489.72
2022-10-04T04:37:36.840Z,98496.19
2022-10-04T04:40:21.322Z,98494.81
2022-10-04T04:42:49.272Z,98499.56
2022-10-04T04:45:19.967Z,98495.84
2022-10-04T04:47:50.635Z,98497.19
2022-10-04T04:50:18.544Z,98500.97
2022-10-04T04:52:48.467Z,98500.19
2022-10-04T04:55:22.731Z,98498.66
2022-10-04T04:57:51.052Z,98502.78
2022-10-04T05:00:21.270Z,98494.91
2022-10-04T05:02:58.767Z,98506.44
2022-10-04T05:05:35.162Z,98503.78
2022-10-04T05:08:11.368Z,98504.28
2022-10-04T05:10:42.550Z,98514.41
2022-10-04T05:13:10.824Z,98518.72
2022-10-04T05:15:40.240Z,98517.69
2022-10-04T05:18:30.691Z,98515.00
2022-10-04T05:21:03.500Z,98518.88
2022-10-04T05:23:30.379Z,98518.12
2022-10-04T05:26:00.538Z,98524.13
2022-10-04T05:28:27.666Z,98526.12
2022-10-04T05:31:10.652Z,98520.72
2022-10-04T05:33:45.540Z,98522.28
2022-10-04T05:36:13.891Z,98524.06
2022-10-04T05:39:05.421Z,98528.41
2022-10-04T05:41:40.174Z,98533.31
2022-10-04T05:44:35.086Z,98532.31
2022-10-04T05:47:03.393Z,98529.91
2022-10-04T05:49:52.704Z,98536.97
2022-10-04T05:52:30.634Z,98537.47
2022-10-04T05:55:27.356Z,98540.56
2022-10-04T05:58:06.677Z,98546.00
2022-10-04T06:00:46.201Z,98551.16
2022-10-04T06:03:16.038Z,98554.94
2022-10-04T06:06:01.796Z,98554.75
2022-10-04T06:08:35.006Z,98556.69
2022-10-04T06:11:06.238Z,98557.59
2022-10-04T06:13:40.454Z,98560.22
2022-10-04T06:16:22.590Z,98566.47
2022-10-04T06:19:15.263Z,98553.16
2022-10-04T06:22:23.103Z,98564.06
2022-10-04T06:25:10.871Z,98553.87
2022-10-04T06:27:50.175Z,98560.97
2022-10-04T06:30:19.241Z,98553.84
2022-10-04T06:33:24.068Z,98548.84
2022-10-04T06:36:08.893Z,98578.47
2022-10-04T06:38:56.524Z,98579.66
2022-10-04T06:41:25.892Z,98583.31
2022-10-04T06:44:12.923Z,98578.38
2022-10-04T06:46:48.054Z,98581.84
2022-10-04T06:49:33.588Z,98583.06
2022-10-04T06:52:16.638Z,98577.63
2022-10-04T06:54:50.370Z,98581.50
2022-10-04T06:57:17.147Z,98593.94
2022-10-04T06:59:45.209Z,98582.75
2022-10-04T07:02:22.397Z,98587.38
2022-10-04T07:05:20.333Z,98597.22
2022-10-04T07:08:06.658Z,98609.53
2022-10-04T07:10:50.717Z,98599.94
2022-10-04T07:13:39.126Z,98601.97
2022-10-04T07:16:11.345Z,98600.81
2022-10-04T07:19:01.984Z,98597.59
2022-10-04T07:21:40.680Z,98606.87
2022-10-04T07:24:10.442Z,98606.81
2022-10-04T07:26:49.743Z,98612.06
2022-10-04T07:29:23.678Z,98620.63
2022-10-04T07:32:07.036Z,98617.31
2022-10-04T07:34:47.083Z,98616.72
2022-10-04T07:37:14.716Z,98624.06
2022-10-04T07:39:53.519Z,98624.62
2022-10-04T07:42:35.171Z,98626.31
2022-10-04T07:45:21.022Z,98635.47
2022-10-04T07:47:48.330Z,98631.72
2022-10-04T07:50:21.403Z,98634.41
2022-10-04T07:53:15.454Z,98625.41
2022-10-04T07:56:10.109Z,98635.19
2022-10-04T07:59:19.778Z,98625.06
2022-10-04T08:02:01.463Z,98630.16
2022-10-04T08:04:55.657Z,98635.00
2022-10-04T08:07:53.086Z,98636.75
2022-10-04T08:10:48.759Z,98637.94
2022-10-04T08:13:41.813Z,98631.00
2022-10-04T08:16:37.360Z,98638.53
2022-10-04T08:19:38.551Z,98630.56
2022-10-04T08:22:23.740Z,98633.78
2022-10-04T08:25:01.607Z,98629.87
2022-10-04T08:28:09.236Z,98644.53
2022-10-04T08:31:10.012Z,98645.34
2022-10-04T08:34:12.902Z,98621.59
2022-10-04T08:36:50.345Z,98644.41
2022-10-04T08:39:57.314Z,98649.31
2022-10-04T08:42:34.190Z,98648.81
2022-10-04T08:45:32.661Z,98644.25
2022-10-04T08:48:30.535Z,98643.56
2022-10-04T08:51:00.392Z,98646.22
2022-10-04T08:53:49.178Z,98650.16
2022-10-04T08:56:41.539Z,98650.50
2022-10-04T08:59:17.758Z,98651.69
2022-10-04T09:01:47.457Z,98668.75
2022-10-04T09:04:45.426Z,98652.81
2022-10-04T09:07:27.486Z,98656.50
2022-10-04T09:10:25.160Z,98641.72
2022-10-04T09:13:07.228Z,98643.19
2022-10-04T09:15:52.470Z,98645.31
2022-10-04T09:19:09.120Z,98645.81
2022-10-04T09:22:13.789Z,98652.97
2022-10-04T09:24:52.651Z,98647.81
2022-10-04T09:27:56.997Z,98648.19
2022-10-04T09:30:59.185Z,98651.13
2022-10-04T09:33:44.074Z,98647.59
2022-10-04T09:36:23.098Z,98645.47
2022-10-04T09:39:11.527Z,98654.13
2022-10-04T09:42:04.742Z,98656.97
2022-10-04T09:45:09.790Z,98662.56
2022-10-04T09:48:14.952Z,98653.41
2022-10-04T09:51:13.329Z,98653.03
2022-10-04T09:53:46.544Z,98654.81
2022-10-04T09:56:19.501Z,98657.59
2022-10-04T09:59:04.359Z,98662.41
2022-10-04T10:01:42.645Z,98660.31
2022-10-04T10:04:30.055Z,98671.44
2022-10-04T10:07:28.395Z,98670.16
2022-10-04T10:10:13.766Z,98674.06
2022-10-04T10:13:14.139Z,98674.13
2022-10-04T10:15:43.664Z,98658.25
2022-10-04T10:18:41.045Z,98674.53
2022-10-04T10:21:21.875Z,98671.44
2022-10-04T10:24:27.121Z,98672.56
2022-10-04T10:26:56.553Z,98671.66
2022-10-04T10:29:32.375Z,98669.09
2022-10-04T10:32:04.526Z,98678.81
2022-10-04T10:34:52.749Z,98666.00
2022-10-04T10:37:49.108Z,98667.44
2022-10-04T10:40:37.817Z,98666.72
2022-10-04T10:43:09.811Z,98688.66
2022-10-04T10:45:52.809Z,98680.13
2022-10-04T10:48:47.026Z,98689.41
2022-10-04T10:51:20.675Z,98684.34
2022-10-04T10:54:25.407Z,98682.00
2022-10-04T10:57:59.399Z,98679.19
2022-10-04T11:00:47.967Z,98680.00
2022-10-04T11:03:27.269Z,98673.13
2022-10-04T11:06:16.917Z,98673.56
2022-10-04T11:09:04.809Z,98666.75
2022-10-04T11:11:50.273Z,98670.00
2022-10-04T11:14:42.482Z,98671.88
2022-10-04T11:17:15.595Z,98671.97
2022-10-04T11:20:11.364Z,98668.47
2022-10-04T11:23:00.309Z,98667.91
2022-10-04T11:25:55.062Z,98667.25
2022-10-04T11:29:29.515Z,98664.91
2022-10-04T11:32:02.140Z,98674.00
2022-10-04T11:35:03.005Z,98682.06
2022-10-04T11:38:15.934Z,98665.06
2022-10-04T11:40:48.706Z,98673.88
2022-10-04T11:43:43.108Z,98682.66
2022-10-04T11:46:34.823Z,98675.91
2022-10-04T11:49:46.301Z,98679.66
2022-10-04T11:52:44.270Z,98693.38
2022-10-04T11:55:39.089Z,98688.50
2022-10-04T11:58:32.922Z,98683.69
2022-10-04T12:01:39.046Z,98686.75
2022-10-04T12:04:53.877Z,98686.28
2022-10-04T12:07:46.729Z,98681.34
2022-10-04T12:10:28.295Z,98680.03
2022-10-04T12:13:40.509Z,98681.91
2022-10-04T12:16:30.055Z,98665.06
2022-10-04T12:19:27.655Z,98674.69
2022-10-04T12:22:39.584Z,98676.16
2022-10-04T12:25:32.376Z,98673.56
2022-10-04T12:27:59.697Z,98678.03
2022-10-04T12:30:36.492Z,98671.94
2022-10-04T12:33:15.415Z,98668.63
2022-10-04T12:36:20.810Z,98672.66
2022-10-04T12:39:08.572Z,98668.19
2022-10-04T12:41:35.214Z,98677.78
2022-10-04T12:44:27.231Z,98683.34
2022-10-04T12:47:09.668Z,98677.16
2022-10-04T12:50:04.791Z,98677.19
2022-10-04T12:52:47.468Z,98674.94
2022-10-04T12:55:38.755Z,98680.72
2022-10-04T12:58:39.080Z,98675.25
2022-10-04T13:01:46.363Z,98674.13
2022-10-04T13:08:07.077Z,98686.06
2022-10-04T13:11:05.466Z,98685.59
2022-10-04T13:13:41.517Z,98686.22
2022-10-04T13:19:29.801Z,98688.41
2022-10-04T13:22:06.435Z,98689.34
2022-10-04T13:25:00.509Z,98694.09
2022-10-04T13:27:48.483Z,98685.28
2022-10-04T13:30:43.331Z,98687.78
2022-10-04T13:33:10.269Z,98681.31
2022-10-04T13:35:55.035Z,98683.66
2022-10-04T13:38:32.936Z,98687.81
2022-10-04T13:41:20.754Z,98684.50
2022-10-04T13:43:52.533Z,98687.44
2022-10-04T13:46:32.375Z,98684.13
2022-10-04T13:49:25.929Z,98682.53
2022-10-04T13:52:17.471Z,98692.00
2022-10-04T13:55:13.591Z,98684.81
2022-10-04T13:57:50.274Z,98695.84
2022-10-04T14:00:39.340Z,98689.72
2022-10-04T14:03:28.276Z,98691.13
2022-10-04T14:06:08.518Z,98694.50
2022-10-04T14:09:09.398Z,98695.22
2022-10-04T14:11:54.439Z,98700.56
2022-10-04T14:14:39.423Z,98697.84
2022-10-04T14:17:23.883Z,98693.94
2022-10-04T14:20:08.414Z,98696.59
2022-10-04T14:22:53.905Z,98697.53
2022-10-04T14:25:45.321Z,98694.31
2022-10-04T14:28:45.678Z,98693.81
2022-10-04T14:31:27.878Z,98693.09
2022-10-04T14:34:25.844Z,98697.78
2022-10-04T14:36:58.693Z,98703.44
2022-10-04T14:39:44.034Z,98705.00
2022-10-04T14:42:31.374Z,98703.28
2022-10-04T14:45:35.389Z,98713.69
2022-10-04T14:48:19.604Z,98716.84
2022-10-04T14:51:15.077Z,98715.16
2022-10-04T14:54:10.599Z,98714.25
2022-10-04T14:56:51.219Z,98714.94
2022-10-04T14:59:27.199Z,98719.09
2022-10-04T15:02:12.177Z,98730.19
2022-10-04T15:04:58.409Z,98727.16
2022-10-04T15:07:49.375Z,98727.22
2022-10-04T15:10:34.251Z,98732.28
2022-10-04T15:13:11.866Z,98729.56
2022-10-04T15:16:13.692Z,98732.75
2022-10-04T15:18:54.792Z,98738.72
2022-10-04T15:21:33.139Z,98735.69
2022-10-04T15:24:31.356Z,98743.81
2022-10-04T15:27:01.999Z,98745.28
2022-10-04T15:30:11.931Z,98744.09
2022-10-04T15:33:00.384Z,98739.03
2022-10-04T15:35:33.174Z,98741.94
2022-10-04T15:38:24.547Z,98746.47
2022-10-04T15:41:04.636Z,98742.59
2022-10-04T15:43:34.461Z,98746.00
2022-10-04T15:46:05.007Z,98751.81
2022-10-04T15:48:34.639Z,98743.78
2022-10-04T15:51:14.055Z,98746.88
2022-10-04T15:54:26.471Z,98745.78
2022-10-04T15:56:56.479Z,98752.44
2022-10-04T15:59:36.895Z,98753.94
2022-10-04T16:02:29.012Z,98751.53
2022-10-04T16:05:03.488Z,98757.97
2022-10-04T16:07:55.909Z,98762.47
2022-10-04T16:10:58.755Z,98772.38
2022-10-04T16:13:49.668Z,98770.72
2022-10-04T16:16:26.166Z,98772.84
2022-10-04T16:19:09.987Z,98773.00
2022-10-04T16:21:52.016Z,98772.44
2022-10-04T16:24:18.807Z,98775.25
2022-10-04T16:26:51.444Z,98775.66
2022-10-04T16:29:43.665Z,98777.50
2022-10-04T16:32:10.453Z,98781.56
2022-10-04T16:34:45.680Z,98781.69
2022-10-04T16:37:30.743Z,98775.22
2022-10-04T16:40:09.669Z,98782.88
2022-10-04T16:42:45.249Z,98780.87
2022-10-04T16:45:12.439Z,98782.66
2022-10-04T16:47:56.904Z,98794.06
2022-10-04T16:50:51.731Z,98798.53
2022-10-04T16:53:47.922Z,98806.53
2022-10-04T16:56:18.786Z,98808.50
2022-10-04T16:59:00.697Z,98815.03
2022-10-04T17:02:00.769Z,98804.87
2022-10-04T17:04:36.881Z,98811.78
2022-10-04T17:07:14.725Z,98818.47
2022-10-04T17:10:26.670Z,98822.75
2022-10-04T17:13:21.550Z,98821.44
2022-10-04T17:15:57.648Z,98818.56
2022-10-04T17:18:51.373Z,98825.91
2022-10-04T17:21:49.002Z,98813.06
2022-10-04T17:24:20.174Z,98832.12
2022-10-04T17:27:11.682Z,98835.78
2022-10-04T17:30:11.779Z,98832.81
2022-10-04T17:33:16.176Z,98831.56
2022-10-04T17:36:07.109Z,98826.31
2022-10-04T17:38:55.221Z,98833.69
2022-10-04T17:41:28.090Z,98838.69
2022-10-04T17:44:26.077Z,98842.16
2022-10-04T17:47:15.920Z,98850.47
2022-10-04T17:50:18.629Z,98850.37
2022-10-04T17:53:08.657Z,98853.09
2022-10-04T17:55:53.098Z,98860.75
2022-10-04T17:58:24.476Z,98866.13
2022-10-04T18:00:57.072Z,98850.37
2022-10-04T18:03:32.153Z,98861.22
2022-10-04T18:06:02.816Z,98859.91
2022-10-04T18:08:38.460Z,98865.69
2022-10-04T18:11:20.448Z,98867.09
2022-10-04T18:13:51.423Z,98858.19
2022-10-04T18:16:29.224Z,98862.97
2022-10-04T18:18:56.332Z,98854.31
2022-10-04T18:21:32.569Z,98852.75
2022-10-04T18:24:20.070Z,98856.47
2022-10-04T18:27:01.123Z,98859.94
2022-10-04T18:29:43.669Z,98860.16
2022-10-04T18:32:31.767Z,98868.22
2022-10-04T18:35:01.690Z,98881.37
2022-10-04T18:37:34.004Z,98877.78
2022-10-04T18:40:16.286Z,98880.41
2022-10-04T18:42:50.030Z,98876.97
2022-10-04T18:45:26.029Z,98871.63
2022-10-04T18:47:53.704Z,98871.13
2022-10-04T18:50:20.535Z,98875.03
2022-10-04T18:53:24.710Z,98872.09
2022-10-04T18:56:03.587Z,98876.50
2022-10-04T18:58:59.342Z,98864.47
2022-10-04T19:02:03.334Z,98875.66
2022-10-04T19:05:13.693Z,98880.72
2022-10-04T19:07:43.013Z,98884.66
2022-10-04T19:10:42.796Z,98877.50
2022-10-04T19:13:23.531Z,98874.53
2022-10-04T19:16:15.819Z,98882.53
2022-10-04T19:18:54.309Z,98887.28
2022-10-04T19:21:27.216Z,98873.37
2022-10-04T19:24:18.986Z,98885.56
2022-10-04T19:26:48.633Z,98882.22
2022-10-04T19:29:31.240Z,98878.19
2022-10-04T19:32:33.816Z,98873.31
2022-10-04T19:35:03.628Z,98885.00
2022-10-04T19:37:40.378Z,98896.19
2022-10-04T19:40:36.350Z,98901.97
2022-10-04T19:43:10.745Z,98911.25
2022-10-04T19:46:09.423Z,98912.63
2022-10-04T19:48:50.101Z,98915.22
2022-10-04T19:51:45.992Z,98925.03
2022-10-04T19:54:15.895Z,98930.91
2022-10-04T19:56:47.291Z,98926.22
2022-10-04T19:59:19.225Z,98931.06
2022-10-04T20:01:46.402Z,98923.53
2022-10-04T20:04:35.483Z,98930.12
2022-10-04T20:07:20.681Z,98925.66
2022-10-04T20:10:08.848Z,98920.13
2022-10-04T20:12:45.165Z,98926.03
2022-10-04T20:15:18.219Z,98921.78
2022-10-04T20:17:47.665Z,98930.66
2022-10-04T20:20:17.490Z,98943.28
2022-10-04T20:22:50.496Z,98944.41
2022-10-04T20:25:49.514Z,98938.38
2022-10-04T20:28:43.471Z,98942.78
2022-10-04T20:31:13.202Z,98951.44
2022-10-04T20:33:40.322Z,98951.66
2022-10-04T20:36:12.291Z,98944.22
2022-10-04T20:38:54.243Z,98969.34
2022-10-04T20:41:53.210Z,98963.72
2022-10-04T20:44:43.131Z,98962.69
2022-10-04T20:47:20.130Z,98963.03
2022-10-04T20:49:47.095Z,98959.72
2022-10-04T20:52:15.265Z,98968.00
2022-10-04T20:54:53.415Z,98965.66
2022-10-04T20:57:24.088Z,98978.59
2022-10-04T20:59:55.575Z,98976.22
2022-10-04T21:02:24.778Z,98975.47
2022-10-04T21:04:54.325Z,98982.34
2022-10-04T21:07:23.404Z,98981.13
2022-10-04T21:09:51.026Z,98994.16
2022-10-04T21:12:32.671Z,98983.22
2022-10-04T21:15:13.324Z,98979.50
2022-10-04T21:17:40.186Z,98980.47
2022-10-04T21:20:14.664Z,98991.78
2022-10-04T21:22:42.208Z,98988.66
2022-10-04T21:25:31.296Z,98995.34
2022-10-04T21:28:24.139Z,98992.06
2022-10-04T21:30:51.099Z,98990.62
2022-10-04T21:33:17.940Z,98993.84
2022-10-04T21:35:44.841Z,98991.16
2022-10-04T21:38:11.756Z,98996.78
2022-10-04T21:40:38.674Z,98996.91
2022-10-04T21:43:05.484Z,98995.53
2022-10-04T21:45:32.203Z,98993.28
2022-10-04T21:47:59.058Z,98998.34
2022-10-04T21:50:25.767Z,98997.47
2022-10-04T21:52:52.629Z,99000.94
2022-10-04T21:55:19.531Z,99003.84
2022-10-04T21:57:46.447Z,99003.03
2022-10-04T22:00:13.639Z,98999.69
2022-10-04T22:02:40.510Z,99011.06
2022-10-04T22:05:07.640Z,99008.75
2022-10-04T22:07:34.521Z,99005.56
2022-10-04T22:10:01.402Z,99000.00
2022-10-04T22:12:28.266Z,98996.03
2022-10-04T22:14:55.170Z,99007.66
2022-10-04T22:17:22.019Z,99017.28
2022-10-04T22:19:50.051Z,99003.44
2022-10-04T22:22:17.422Z,99007.16
2022-10-04T22:24:44.395Z,99019.63
2022-10-04T22:27:15.849Z,99011.75
2022-10-04T22:29:43.345Z,99015.25
2022-10-04T22:32:25.944Z,99012.78
2022-10-04T22:34:59.106Z,99020.81
2022-10-04T22:37:26.175Z,99015.19
2022-10-04T22:39:53.280Z,99017.91
2022-10-04T22:42:21.312Z,99022.62
2022-10-04T22:44:48.151Z,99023.28
2022-10-04T22:47:15.530Z,99024.44
2022-10-04T22:49:44.504Z,99026.78
2022-10-04T22:52:15.524Z,99028.84
2022-10-04T22:54:47.483Z,99032.56
2022-10-04T22:57:15.899Z,99031.56
2022-10-04T22:59:47.487Z,99030.72
2022-10-04T23:02:18.277Z,99032.22
2022-10-04T23:05:18.250Z,99029.94
2022-10-04T23:07:46.299Z,99033.63
2022-10-04T23:10:15.089Z,99031.56
2022-10-04T23:12:45.515Z,99033.03
2022-10-04T23:15:18.458Z,99031.88
2022-10-04T23:23:23.649Z,99050.69
2022-10-04T23:25:51.152Z,99059.59
2022-10-04T23:28:19.242Z,99056.78
2022-10-04T23:30:50.270Z,99050.41
2022-10-04T23:33:20.431Z,99049.66
2022-10-04T23:35:48.351Z,99054.69
2022-10-04T23:38:17.353Z,99046.03
2022-10-04T23:40:45.541Z,99045.00
2022-10-04T23:43:22.152Z,99047.38
2022-10-04T23:45:49.051Z,99037.72
2022-10-04T23:48:22.688Z,99047.13
2022-10-04T23:50:50.166Z,99048.22
2022-10-04T23:53:24.254Z,99050.06
2022-10-04T23:55:51.153Z,99053.81
